Time;durP1;ratioP1;P1;durP2;ratioP2;P2;SDS_P1;SDS_P2;PMS_P1;PMS_P2;Temp;Humidity;BMP_temperature;BMP_pressure;BME280_temperature;BME280_humidity;BME280_pressure;Samples;Min_cycle;Max_cycle;Signal;HPM_P1;HPM_P2
2022/06/19 00:01:01;;;;;;;8.00;2.80;;;;;;;20.14;58.89;100728.59;5091304;28;20429;-65
2022/06/19 00:03:32;;;;;;;11.77;2.92;;;;;;;20.04;58.93;100724.34;5091676;28;20108;-65
2022/06/19 00:05:59;;;;;;;10.13;3.28;;;;;;;19.93;59.13;100720.91;5091021;28;20131;-65
2022/06/19 00:08:26;;;;;;;9.85;3.30;;;;;;;19.98;58.95;100719.59;5073306;28;20490;-66
2022/06/19 00:10:51;;;;;;;8.45;2.95;;;;;;;19.88;58.87;100727.78;5073358;28;20421;-66
2022/06/19 00:13:17;;;;;;;10.23;3.45;;;;;;;19.80;59.46;100727.78;5072847;28;20085;-65
2022/06/19 00:15:42;;;;;;;6.75;3.03;;;;;;;19.74;58.77;100721.16;5056070;28;20553;-66
2022/06/19 00:18:08;;;;;;;11.15;3.58;;;;;;;19.67;59.31;100714.69;5073144;28;20075;-66
2022/06/19 00:20:34;;;;;;;10.13;2.97;;;;;;;19.81;58.72;100711.41;5072671;28;20032;-66
2022/06/19 00:23:00;;;;;;;12.52;2.80;;;;;;;19.88;58.70;100706.19;5091239;28;20088;-66
2022/06/19 00:25:25;;;;;;;9.30;3.08;;;;;;;19.61;58.94;100723.38;5072106;28;20078;-66
2022/06/19 00:27:50;;;;;;;14.55;3.30;;;;;;;19.40;59.78;100727.28;5072166;28;20508;-66
2022/06/19 00:30:16;;;;;;;11.85;2.78;;;;;;;19.43;59.43;100735.06;5090777;28;20044;-66
2022/06/19 00:32:44;;;;;;;9.13;3.10;;;;;;;19.33;59.79;100738.88;5090952;28;20028;-66
2022/06/19 00:35:13;;;;;;;14.32;3.72;;;;;;;19.21;60.08;100749.06;5073352;28;20031;-66
2022/06/19 00:37:38;;;;;;;11.57;3.17;;;;;;;19.12;60.07;100747.28;5090998;28;20051;-66
2022/06/19 00:40:07;;;;;;;11.80;2.92;;;;;;;19.30;59.58;100742.72;5072439;28;20047;-66
2022/06/19 00:42:33;;;;;;;10.48;3.22;;;;;;;19.32;59.59;100739.88;5090462;28;20039;-66
2022/06/19 00:45:00;;;;;;;8.52;2.97;;;;;;;19.14;59.81;100748.81;5072887;28;20024;-66
2022/06/19 00:47:34;;;;;;;11.55;2.90;;;;;;;18.93;59.39;100713.25;5074297;28;20063;-66
2022/06/19 00:50:22;;;;;;;12.07;2.90;;;;;;;19.10;59.53;100735.81;5095180;28;20020;-66
2022/06/19 00:52:49;;;;;;;10.02;3.20;;;;;;;19.03;58.88;100738.25;5092379;28;20024;-66
2022/06/19 00:55:25;;;;;;;12.93;3.58;;;;;;;18.96;59.17;100743.44;5095095;28;20032;-66
2022/06/19 00:58:19;;;;;;;11.68;3.30;;;;;;;18.67;59.53;100740.91;5075861;28;20058;-66
2022/06/19 01:00:47;;;;;;;11.68;3.13;;;;;;;18.64;59.25;100751.16;5093882;28;20039;-66
2022/06/19 01:03:41;;;;;;;14.13;3.90;;;;;;;18.75;58.44;100750.97;5094897;28;20093;-66
2022/06/19 01:06:08;;;;;;;10.90;3.05;;;;;;;18.62;57.91;100735.16;5094759;28;20028;-66
2022/06/19 01:08:36;;;;;;;11.73;3.38;;;;;;;18.69;57.83;100738.06;5093951;28;20032;-66
2022/06/19 01:11:06;;;;;;;12.60;3.70;;;;;;;18.64;57.41;100729.59;5094502;28;20047;-66
2022/06/19 01:13:33;;;;;;;18.48;3.60;;;;;;;18.60;56.75;100724.50;5094052;28;20429;-66
2022/06/19 01:16:00;;;;;;;11.20;3.30;;;;;;;18.63;56.81;100746.78;5094434;28;20485;-66
2022/06/19 01:18:26;;;;;;;13.20;3.38;;;;;;;18.43;57.51;100781.03;5094374;28;20034;-66
2022/06/19 01:20:57;;;;;;;10.82;3.78;;;;;;;18.11;58.22;100880.06;5076231;28;20028;-66
2022/06/19 01:23:41;;;;;;;13.98;3.42;;;;;;;17.75;58.62;100921.16;5076062;28;20437;-66
2022/06/19 01:26:11;;;;;;;14.25;4.00;;;;;;;17.81;57.91;100837.22;5093780;28;20038;-66
2022/06/19 01:28:46;;;;;;;9.77;2.95;;;;;;;17.81;58.09;100802.22;5093764;28;20098;-66
2022/06/19 01:31:16;;;;;;;10.82;3.25;;;;;;;17.80;57.52;100830.13;5094717;28;20059;-66
2022/06/19 01:33:50;;;;;;;12.82;3.47;;;;;;;17.61;58.24;100882.06;5093844;28;20543;-66
2022/06/19 01:36:20;;;;;;;11.23;3.53;;;;;;;17.36;57.84;100868.19;5093626;28;20039;-66
2022/06/19 01:38:51;;;;;;;11.70;3.20;;;;;;;17.41;56.71;100816.66;5093984;28;20487;-65
2022/06/19 01:41:27;;;;;;;12.07;3.70;;;;;;;17.23;56.75;100848.78;5094343;28;20095;-66
2022/06/19 01:43:53;;;;;;;13.68;3.60;;;;;;;17.24;56.77;100898.88;5093634;28;20038;-66
2022/06/19 01:46:19;;;;;;;10.93;3.40;;;;;;;17.24;56.18;100870.16;5058399;28;20393;-66
2022/06/19 01:48:45;;;;;;;14.73;3.55;;;;;;;17.23;55.70;100829.97;5093948;28;20521;-66
2022/06/19 01:51:11;;;;;;;12.95;3.67;;;;;;;17.13;56.27;100858.69;5093835;28;20020;-66
2022/06/19 01:53:42;;;;;;;15.73;4.00;;;;;;;17.11;56.46;100866.03;5093791;28;20440;-65
2022/06/19 01:56:10;;;;;;;12.25;3.45;;;;;;;17.22;55.72;100831.81;5093674;28;20024;-66
2022/06/19 01:58:42;;;;;;;12.38;3.58;;;;;;;17.08;54.67;100867.16;5092682;28;20016;-66
2022/06/19 02:01:08;;;;;;;14.43;3.92;;;;;;;17.04;54.97;100881.84;5075772;28;20077;-67
2022/06/19 02:03:37;;;;;;;15.40;3.85;;;;;;;16.91;53.77;100863.31;5093651;28;20099;-66
2022/06/19 02:06:03;;;;;;;12.43;3.67;;;;;;;16.86;53.76;100870.09;5093115;28;20103;-67
2022/06/19 02:08:32;;;;;;;11.10;3.42;;;;;;;17.14;52.96;100884.56;5075429;28;20103;-66
2022/06/19 02:10:59;;;;;;;13.80;4.07;;;;;;;16.90;52.40;100861.59;5093551;28;20023;-66
2022/06/19 02:13:25;;;;;;;15.00;3.63;;;;;;;16.56;52.21;100863.72;5093327;28;20071;-66
2022/06/19 02:15:53;;;;;;;12.45;3.20;;;;;;;16.51;52.32;100874.00;5093240;28;20077;-66
2022/06/19 02:18:31;;;;;;;12.50;3.17;;;;;;;16.46;52.85;100854.75;5093388;28;20420;-66
2022/06/19 02:20:57;;;;;;;13.43;3.35;;;;;;;16.51;51.92;100850.69;5093104;28;20047;-66
2022/06/19 02:23:30;;;;;;;16.38;3.58;;;;;;;16.68;51.41;100869.84;5075091;28;20063;-66
2022/06/19 02:25:56;;;;;;;11.70;3.33;;;;;;;16.74;51.17;100880.03;5092939;28;20085;-66
2022/06/19 02:28:22;;;;;;;14.13;3.75;;;;;;;16.65;51.65;100873.66;5074686;28;20047;-66
2022/06/19 02:30:49;;;;;;;12.15;3.35;;;;;;;16.65;51.48;100878.16;5074889;28;20654;-67
2022/06/19 02:33:19;;;;;;;13.38;4.20;;;;;;;16.79;51.05;100886.75;5093002;28;20031;-66
2022/06/19 02:35:45;;;;;;;11.48;3.45;;;;;;;16.87;51.01;100879.84;5092487;28;20172;-66
2022/06/19 02:38:17;;;;;;;16.10;3.45;;;;;;;16.67;51.38;100900.34;5092780;28;20039;-66
2022/06/19 02:41:09;;;;;;;11.60;3.70;;;;;;;16.70;50.99;100882.13;5074478;28;20043;-66
2022/06/19 02:43:35;;;;;;;11.77;3.03;;;;;;;16.51;51.25;100901.72;5092476;28;20035;-67
2022/06/19 02:46:06;;;;;;;12.18;3.15;;;;;;;16.55;50.70;100900.44;5074375;28;20036;-66
2022/06/19 02:48:31;;;;;;;9.88;3.35;;;;;;;16.47;51.11;100873.44;5092535;28;20036;-66
2022/06/19 02:51:00;;;;;;;13.82;3.58;;;;;;;16.48;50.85;100871.59;5074287;28;20038;-66
2022/06/19 02:53:27;;;;;;;7.47;2.95;;;;;;;16.48;51.23;100869.75;5092906;28;20020;-66
2022/06/19 02:55:52;;;;;;;9.52;2.78;;;;;;;16.42;50.38;100878.34;5092890;28;20024;-66
2022/06/19 02:58:19;;;;;;;12.48;3.22;;;;;;;16.28;50.56;100914.44;5091914;28;20020;-66
2022/06/19 03:00:46;;;;;;;11.27;2.83;;;;;;;16.34;50.34;100985.53;5074111;28;20387;-67
2022/06/19 03:03:35;;;;;;;11.18;3.42;;;;;;;16.35;50.79;100990.78;5092459;28;20449;-67
2022/06/19 03:06:04;;;;;;;9.55;3.17;;;;;;;16.42;50.11;100941.94;5074268;28;20029;-67
2022/06/19 03:08:29;;;;;;;9.65;2.75;;;;;;;16.39;49.94;100916.19;5092335;28;20479;-66
2022/06/19 03:10:55;;;;;;;10.57;2.95;;;;;;;16.36;49.77;100908.41;5073225;28;20043;-66
2022/06/19 03:13:21;;;;;;;10.68;2.60;;;;;;;16.23;49.91;100913.97;5091757;28;20035;-66
2022/06/19 03:15:58;;;;;;;10.02;2.38;;;;;;;16.23;49.99;100913.13;5092292;28;20043;-66
2022/06/19 03:18:25;;;;;;;7.47;2.45;;;;;;;16.22;49.70;100893.50;5091960;28;20024;-66
2022/06/19 03:20:51;;;;;;;8.63;2.75;;;;;;;16.32;49.24;100878.31;5040754;28;20024;-66
2022/06/19 03:23:17;;;;;;;15.73;2.80;;;;;;;16.44;48.36;100854.91;5074014;28;20406;-66
2022/06/19 03:25:42;;;;;;;7.25;2.53;;;;;;;16.31;48.50;100855.13;5074022;28;20036;-66
2022/06/19 03:28:08;;;;;;;11.73;2.55;;;;;;;16.42;48.25;100866.78;5072966;28;20040;-66
2022/06/19 03:30:34;;;;;;;9.18;2.58;;;;;;;16.27;48.24;100877.84;5073216;28;20132;-67
2022/06/19 03:33:04;;;;;;;10.73;2.40;;;;;;;16.23;48.18;100907.75;5073249;28;20356;-67
2022/06/19 03:35:30;;;;;;;5.38;2.00;;;;;;;16.32;47.78;100872.94;5090236;28;20032;-67
2022/06/19 03:37:55;;;;;;;5.10;2.10;;;;;;;16.40;47.64;100866.88;5073596;28;20524;-66
2022/06/19 03:40:20;;;;;;;8.35;2.42;;;;;;;16.37;47.66;100858.25;5091457;28;20028;-67
2022/06/19 03:42:46;;;;;;;12.75;2.45;;;;;;;16.51;46.93;100869.50;5091044;28;20032;-66
2022/06/19 03:45:12;;;;;;;2.78;2.08;;;;;;;16.43;47.42;100825.50;5055768;28;20528;-66
2022/06/19 03:47:39;;;;;;;8.70;2.30;;;;;;;16.32;47.73;100802.28;5091291;28;20150;-67
2022/06/19 03:50:08;;;;;;;5.80;2.03;;;;;;;16.38;47.93;100831.25;5091387;28;20494;-67
2022/06/19 03:52:34;;;;;;;10.38;2.25;;;;;;;16.31;48.10;100860.50;5091443;28;20523;-67
2022/06/19 03:54:59;;;;;;;9.40;2.33;;;;;;;16.28;48.17;100951.16;5038001;28;20067;-67
2022/06/19 03:57:25;;;;;;;5.88;2.20;;;;;;;16.17;48.32;100986.97;5038092;28;20039;-67
2022/06/19 03:59:51;;;;;;;10.70;2.30;;;;;;;16.13;48.81;100964.91;5072912;28;20028;-67
2022/06/19 04:02:16;;;;;;;6.35;2.10;;;;;;;16.08;48.60;100878.56;5073068;28;20063;-67
2022/06/19 04:04:42;;;;;;;7.32;2.40;;;;;;;16.16;48.23;100879.75;5090939;28;20393;-67
2022/06/19 04:07:11;;;;;;;4.20;1.88;;;;;;;16.33;46.85;100903.31;5091205;28;20090;-67
2022/06/19 04:09:36;;;;;;;2.78;1.70;;;;;;;16.42;46.61;100877.50;5090959;28;20461;-66
2022/06/19 04:12:05;;;;;;;5.88;2.10;;;;;;;16.50;45.87;100840.06;5090959;28;20052;-66
2022/06/19 04:14:30;;;;;;;5.57;2.03;;;;;;;16.46;46.21;100835.97;5073285;28;20057;-67
2022/06/19 04:16:58;;;;;;;8.07;2.40;;;;;;;16.29;46.98;100798.03;5090600;28;20024;-67
2022/06/19 04:19:23;;;;;;;8.95;2.10;;;;;;;16.31;45.68;100774.59;5072425;28;20429;-66
2022/06/19 04:21:49;;;;;;;8.55;2.28;;;;;;;16.32;46.15;100756.66;5090763;28;20028;-67
2022/06/19 04:24:17;;;;;;;5.63;2.25;;;;;;;16.26;46.45;100750.00;5090959;28;20044;-67
2022/06/19 04:26:42;;;;;;;10.25;2.80;;;;;;;16.21;46.64;100735.31;5090656;28;20040;-68
2022/06/19 04:29:10;;;;;;;7.63;2.17;;;;;;;16.16;47.08;100719.59;5090404;28;20047;-67
2022/06/19 04:31:35;;;;;;;8.00;2.58;;;;;;;16.15;47.60;100706.31;5090470;28;20028;-66
2022/06/19 04:34:02;;;;;;;7.13;2.28;;;;;;;16.34;47.71;100720.63;5090911;28;20027;-66
2022/06/19 04:36:29;;;;;;;7.72;2.30;;;;;;;16.37;47.86;100721.34;5091059;28;20016;-67
2022/06/19 04:38:56;;;;;;;10.98;2.47;;;;;;;16.43;48.21;100720.81;5090172;28;20032;-67
2022/06/19 04:41:33;;;;;;;8.95;2.55;;;;;;;16.45;48.18;100708.94;5073043;28;20077;-66
2022/06/19 04:43:59;;;;;;;7.63;2.53;;;;;;;16.50;48.04;100725.50;5090623;28;20118;-67
2022/06/19 04:46:25;;;;;;;8.70;2.53;;;;;;;16.55;48.36;100717.84;5072840;28;20032;-67
2022/06/19 04:48:52;;;;;;;8.18;2.40;;;;;;;16.66;48.49;100714.22;5090829;28;20383;-67
2022/06/19 04:51:18;;;;;;;9.93;3.08;;;;;;;16.68;48.27;100693.44;5072018;28;20331;-66
2022/06/19 04:53:44;;;;;;;10.23;2.58;;;;;;;16.70;48.55;100669.97;5072616;28;20468;-67
2022/06/19 04:56:15;;;;;;;9.43;2.35;;;;;;;16.66;48.69;100662.34;5089966;28;20095;-67
2022/06/19 04:58:41;;;;;;;11.63;2.80;;;;;;;16.62;48.55;100663.59;5072314;28;20027;-67
2022/06/19 05:01:12;;;;;;;9.00;2.58;;;;;;;16.63;49.48;100663.47;5072203;28;20024;-67
2022/06/19 05:03:38;;;;;;;9.48;2.70;;;;;;;16.56;48.38;100665.03;5090764;28;20475;-67
2022/06/19 05:06:07;;;;;;;10.57;2.17;;;;;;;16.54;48.38;100683.94;5055435;28;20042;-67
2022/06/19 05:08:33;;;;;;;6.30;2.22;;;;;;;16.65;49.02;100696.41;5089807;28;20020;-66
2022/06/19 05:10:58;;;;;;;10.55;2.22;;;;;;;16.67;48.14;100736.53;5072672;28;20536;-66
2022/06/19 05:13:26;;;;;;;8.55;2.55;;;;;;;16.67;49.03;100752.66;5072094;28;20433;-67
2022/06/19 05:16:05;;;;;;;8.40;2.67;;;;;;;16.77;48.99;100746.34;5090532;28;20460;-67
2022/06/19 05:18:31;;;;;;;6.15;2.30;;;;;;;16.86;48.94;100722.31;5071370;28;20030;-67
2022/06/19 05:21:00;;;;;;;10.20;2.72;;;;;;;16.84;48.84;100719.75;5090708;28;20039;-67
2022/06/19 05:23:26;;;;;;;8.82;3.05;;;;;;;16.90;49.03;100740.69;5090608;28;20030;-67
2022/06/19 05:26:01;;;;;;;8.60;2.58;;;;;;;17.00;48.34;100746.94;5055668;28;20032;-67
2022/06/19 05:28:30;;;;;;;7.88;2.60;;;;;;;17.14;48.47;100774.38;5069969;28;20040;-66
2022/06/19 05:30:57;;;;;;;5.18;2.53;;;;;;;17.27;47.49;100788.38;5072375;28;20028;-67
2022/06/19 05:33:23;;;;;;;10.10;2.38;;;;;;;17.30;48.38;100801.53;5072518;28;20027;-67
2022/06/19 05:35:49;;;;;;;8.43;2.60;;;;;;;17.40;48.34;100812.28;5093517;28;20024;-67
2022/06/19 05:38:15;;;;;;;10.32;2.40;;;;;;;17.49;47.64;100835.63;5094147;28;20027;-67
2022/06/19 05:40:43;;;;;;;7.90;2.50;;;;;;;17.66;46.86;100844.84;5093852;28;20044;-66
2022/06/19 05:43:09;;;;;;;8.23;2.47;;;;;;;17.51;47.72;100863.25;5093101;28;20036;-67
2022/06/19 05:45:35;;;;;;;8.77;2.92;;;;;;;17.59;48.77;100868.78;5093176;28;20039;-67
2022/06/19 05:48:04;;;;;;;8.45;2.72;;;;;;;17.67;49.73;100868.88;5093708;28;20031;-67
2022/06/19 05:50:30;;;;;;;9.18;2.83;;;;;;;17.60;48.68;100842.72;5076291;28;20127;-67
2022/06/19 05:52:55;;;;;;;10.02;2.42;;;;;;;17.53;48.40;100834.38;5074970;28;20110;-67
2022/06/19 05:55:21;;;;;;;9.50;2.50;;;;;;;17.64;48.30;100871.00;5075867;28;20024;-67
2022/06/19 05:57:47;;;;;;;7.13;2.50;;;;;;;17.73;48.88;100890.84;5057937;28;20395;-67
2022/06/19 06:00:15;;;;;;;11.77;2.90;;;;;;;17.51;49.55;100887.44;5058639;28;20056;-67
2022/06/19 06:02:41;;;;;;;7.10;2.55;;;;;;;17.37;49.97;100888.69;5093372;28;20482;-67
2022/06/19 06:05:07;;;;;;;6.72;2.30;;;;;;;17.31;51.02;100891.94;5073629;28;20028;-67
2022/06/19 06:07:32;;;;;;;6.68;2.50;;;;;;;17.32;50.58;100896.31;5093430;28;20047;-67
2022/06/19 06:09:59;;;;;;;9.52;2.65;;;;;;;17.28;51.06;100929.88;5058566;28;20028;-68
2022/06/19 06:12:25;;;;;;;9.40;2.70;;;;;;;17.22;51.25;100955.47;5093080;28;20032;-67
2022/06/19 06:14:51;;;;;;;8.93;2.35;;;;;;;17.19;51.48;100949.50;5058414;28;20332;-67
2022/06/19 06:17:17;;;;;;;9.52;2.65;;;;;;;17.17;51.94;100944.25;5058185;28;20458;-67
2022/06/19 06:19:43;;;;;;;9.63;3.00;;;;;;;17.12;51.98;100941.16;5074973;28;20035;-67
2022/06/19 06:22:08;;;;;;;12.80;3.17;;;;;;;16.98;51.19;100954.97;5074788;28;20505;-67
2022/06/19 06:24:36;;;;;;;10.18;2.30;;;;;;;17.00;52.01;101037.16;5073144;28;20044;-67
2022/06/19 06:27:07;;;;;;;9.20;2.67;;;;;;;17.05;51.92;101044.78;5074213;28;20040;-67
2022/06/19 06:29:33;;;;;;;8.63;2.38;;;;;;;17.09;52.13;101048.94;5092501;28;20032;-67
2022/06/19 06:31:58;;;;;;;8.68;2.97;;;;;;;17.17;54.46;101078.66;5092059;28;20559;-67
2022/06/19 06:34:24;;;;;;;8.40;2.45;;;;;;;17.22;56.95;101135.56;5074047;28;20043;-67
2022/06/19 06:36:52;;;;;;;7.88;2.70;;;;;;;17.17;60.00;101166.50;5092596;28;20032;-67
2022/06/19 06:39:20;;;;;;;9.13;2.85;;;;;;;17.16;58.20;101176.41;5073303;28;20046;-67
2022/06/19 06:41:46;;;;;;;10.05;3.38;;;;;;;17.25;59.23;101174.78;5055436;28;20085;-67
2022/06/19 06:44:13;;;;;;;7.60;2.72;;;;;;;17.22;56.90;101175.03;5074148;28;20039;-67
2022/06/19 06:46:39;;;;;;;8.70;3.03;;;;;;;17.06;56.45;101177.31;5092921;28;20387;-67
2022/06/19 06:49:04;;;;;;;14.43;3.08;;;;;;;17.04;57.38;101174.78;5092313;28;20024;-67
2022/06/19 06:51:31;;;;;;;7.15;2.53;;;;;;;17.06;58.71;101167.44;5092480;28;20032;-67
2022/06/19 06:53:58;;;;;;;9.00;2.50;;;;;;;17.13;60.11;101149.81;5092022;28;20097;-67
2022/06/19 06:56:24;;;;;;;6.57;2.80;;;;;;;17.08;59.73;101145.81;5092505;28;20023;-67
2022/06/19 06:58:50;;;;;;;7.72;2.80;;;;;;;17.06;58.97;101137.00;5091684;28;20028;-67
2022/06/19 07:01:21;;;;;;;12.18;3.22;;;;;;;17.05;59.18;101129.94;5074437;28;20076;-67
2022/06/19 07:03:59;;;;;;;8.00;2.88;;;;;;;17.06;60.08;101123.56;5091928;28;20550;-67
2022/06/19 07:06:27;;;;;;;9.80;2.92;;;;;;;17.08;59.91;101119.78;5092278;28;20098;-67
2022/06/19 07:08:52;;;;;;;12.43;2.50;;;;;;;16.97;57.82;101109.97;5074190;28;20532;-67
2022/06/19 07:11:35;;;;;;;9.98;3.10;;;;;;;16.98;58.10;101135.00;5091827;28;20040;-67
2022/06/19 07:14:01;;;;;;;8.75;2.97;;;;;;;17.04;58.40;101158.66;5073387;28;20028;-67
2022/06/19 07:16:27;;;;;;;8.65;2.38;;;;;;;16.87;58.45;101183.41;5074084;28;20100;-67
2022/06/19 07:18:52;;;;;;;7.57;2.60;;;;;;;16.66;60.13;101177.97;5073484;28;20023;-67
2022/06/19 07:21:21;;;;;;;10.15;3.30;;;;;;;16.69;62.02;101175.03;5091129;28;20024;-67
2022/06/19 07:23:46;;;;;;;8.50;2.60;;;;;;;16.65;60.10;101158.34;5091642;28;20024;-67
2022/06/19 07:26:17;;;;;;;9.88;2.90;;;;;;;16.50;63.42;101114.81;5056611;28;20300;-67
2022/06/19 07:28:43;;;;;;;15.02;3.92;;;;;;;16.31;67.15;101090.47;5091417;28;20044;-67
2022/06/19 07:31:10;;;;;;;12.68;3.28;;;;;;;15.93;69.44;101058.78;5056863;28;20055;-67
2022/06/19 07:33:37;;;;;;;14.45;3.55;;;;;;;15.63;70.24;101046.88;5073533;28;20024;-67
2022/06/19 07:36:04;;;;;;;14.65;3.13;;;;;;;15.65;71.22;101023.47;5091609;28;20047;-65
2022/06/19 07:38:30;;;;;;;11.88;3.67;;;;;;;15.74;72.12;101021.91;5091540;28;20023;-65
2022/06/19 07:40:55;;;;;;;13.45;3.10;;;;;;;15.64;73.58;101016.38;5056606;28;20031;-65
2022/06/19 07:43:21;;;;;;;13.32;2.95;;;;;;;15.72;73.40;100986.31;5072825;28;20046;-65
2022/06/19 07:45:46;;;;;;;12.05;3.00;;;;;;;15.69;74.26;100957.91;5073301;28;20202;-61
2022/06/19 07:50:56;;;;;;;11.07;3.25;;;;;;;15.74;72.59;101017.38;5091707;28;20178;-65
2022/06/19 07:53:22;;;;;;;11.10;3.47;;;;;;;15.63;72.68;101076.34;5073327;28;20440;-64
2022/06/19 07:55:47;;;;;;;8.63;3.50;;;;;;;15.73;74.90;101116.72;5091275;28;20065;-65
2022/06/19 07:58:16;;;;;;;10.70;3.47;;;;;;;15.80;75.01;101139.41;5091148;28;20035;-65
2022/06/19 08:00:42;;;;;;;13.52;3.78;;;;;;;15.87;71.81;101137.91;5088429;28;20031;-65
2022/06/19 08:03:07;;;;;;;10.10;3.03;;;;;;;16.00;73.89;101100.19;5056157;28;20032;-65
2022/06/19 08:05:34;;;;;;;10.73;3.40;;;;;;;16.11;73.79;101079.56;5089352;28;20040;-65
2022/06/19 08:08:03;;;;;;;15.57;3.58;;;;;;;15.85;73.92;101080.84;5086057;28;20060;-65
2022/06/19 08:10:39;;;;;;;12.70;3.25;;;;;;;15.76;73.78;101077.09;5090053;28;20016;-65
2022/06/19 08:13:06;;;;;;;13.07;3.50;;;;;;;15.66;73.79;101022.47;5071024;28;20027;-64
2022/06/19 08:15:33;;;;;;;14.35;3.75;;;;;;;15.65;75.69;101069.06;5090707;28;20106;-65
2022/06/19 08:17:59;;;;;;;16.08;3.58;;;;;;;15.76;76.41;101116.47;5072596;28;20484;-65
2022/06/19 08:20:25;;;;;;;9.13;3.47;;;;;;;15.98;75.43;101067.31;5090592;28;20027;-65
2022/06/19 08:22:51;;;;;;;14.18;4.15;;;;;;;16.15;75.86;101021.16;5090152;28;20487;-65
2022/06/19 08:25:19;;;;;;;11.55;3.45;;;;;;;16.26;74.95;101055.13;5072967;28;20040;-65
2022/06/19 08:27:49;;;;;;;9.85;3.80;;;;;;;16.23;76.05;101021.31;5088143;28;20820;-65
2022/06/19 08:30:26;;;;;;;11.93;3.70;;;;;;;16.15;75.75;101015.78;5066694;28;20467;-65
2022/06/19 08:32:52;;;;;;;10.38;3.40;;;;;;;16.26;76.32;101010.34;5089650;28;20103;-65
2022/06/19 08:35:19;;;;;;;11.40;3.45;;;;;;;16.02;76.34;101015.09;5055665;28;20077;-65
2022/06/19 08:37:47;;;;;;;12.65;3.60;;;;;;;15.86;78.67;100988.69;5094985;28;20020;-65
2022/06/19 08:40:44;;;;;;;15.15;4.38;;;;;;;15.83;78.65;100992.47;5080938;28;20047;-65
2022/06/19 08:43:34;;;;;;;12.20;3.53;;;;;;;15.83;78.57;100970.19;5088072;28;20103;-65
2022/06/19 08:46:38;;;;;;;13.68;3.72;;;;;;;15.77;77.62;100919.72;5089444;28;20123;-65
2022/06/19 08:49:22;;;;;;;10.40;3.88;;;;;;;15.91;78.46;100914.03;5011150;28;20591;-65
2022/06/19 08:52:20;;;;;;;11.57;4.03;;;;;;;15.94;78.37;100935.22;5084231;28;20051;-65
2022/06/19 08:54:52;;;;;;;15.88;3.92;;;;;;;15.84;77.77;100972.72;5081546;28;20166;-65
2022/06/19 08:57:34;;;;;;;15.88;4.55;;;;;;;15.89;78.80;100967.81;5090501;28;20024;-65
2022/06/19 09:00:23;;;;;;;14.90;4.13;;;;;;;15.85;78.39;100958.34;5090814;28;20379;-66
2022/06/19 09:05:36;;;;;;;11.85;4.07;;;;;;;16.01;77.17;100975.81;5072420;28;20038;-66
2022/06/19 09:06:20;;;;;;;12.77;3.42;;;;;;;16.19;78.41;100989.53;5090120;28;20115;-66
2022/06/19 09:08:57;;;;;;;10.95;4.20;;;;;;;16.15;77.77;101012.22;5091168;28;20027;-66
2022/06/19 09:11:40;;;;;;;8.13;3.30;;;;;;;16.22;77.45;101022.31;5094503;28;20024;-66
2022/06/19 09:14:15;;;;;;;10.63;3.80;;;;;;;16.49;75.04;101056.72;5093754;28;20028;-66
2022/06/19 09:16:46;;;;;;;8.07;2.97;;;;;;;16.78;76.74;101088.34;5092661;28;20059;-66
2022/06/19 09:19:15;;;;;;;15.70;3.67;;;;;;;16.96;72.91;101102.88;5094331;28;20032;-65
2022/06/19 09:22:01;;;;;;;;;;;;;;;17.27;72.67;101108.28;5094194;28;20103;-66
2022/06/19 09:24:41;;;;;;;15.30;3.42;;;;;;;17.24;72.16;101103.19;5048371;28;19916;-66
2022/06/19 09:27:08;;;;;;;14.02;3.38;;;;;;;17.19;67.96;101083.91;5073077;28;20044;-66
2022/06/19 09:29:46;;;;;;;9.30;3.30;;;;;;;17.23;70.08;101083.50;5080709;28;20028;-64
2022/06/19 09:32:23;;;;;;;14.10;3.72;;;;;;;17.40;69.37;101084.72;5081947;28;20487;-65
2022/06/19 09:35:01;;;;;;;12.75;3.20;;;;;;;17.44;69.94;101080.78;5090745;28;20046;-65
2022/06/19 09:37:47;;;;;;;9.43;3.40;;;;;;;17.42;67.25;101065.75;5093814;28;20038;-65
2022/06/19 09:40:23;;;;;;;13.35;3.50;;;;;;;17.49;66.80;101046.25;5091743;28;20378;-65
2022/06/19 09:43:05;;;;;;;9.75;3.50;;;;;;;17.74;66.43;101038.69;5092123;28;20054;-65
2022/06/19 09:46:06;;;;;;;9.55;3.10;;;;;;;17.97;67.92;101025.88;5091221;28;20107;-64
2022/06/19 09:48:46;;;;;;;9.90;3.13;;;;;;;18.03;68.36;100998.38;5093980;28;20081;-65
2022/06/19 09:51:20;;;;;;;10.60;3.67;;;;;;;18.26;66.77;100992.69;5077061;28;20051;-65
2022/06/19 09:53:59;;;;;;;13.65;3.50;;;;;;;18.17;67.11;101010.53;5094262;28;20038;-65
2022/06/19 09:57:02;;;;;;;11.60;3.67;;;;;;;18.07;67.43;101020.47;5093507;28;20023;-66
2022/06/19 09:59:46;;;;;;;10.85;3.25;;;;;;;18.01;65.58;100997.66;5071001;28;20027;-66
2022/06/19 10:02:44;;;;;;;11.75;3.50;;;;;;;18.08;65.72;100979.09;5091968;28;20028;-65
2022/06/19 10:05:31;;;;;;;15.30;4.10;;;;;;;18.04;66.42;100967.78;5092877;28;20016;-64
2022/06/19 10:08:06;;;;;;;13.80;3.45;;;;;;;17.93;65.74;100967.91;5090312;28;20023;-65
2022/06/19 10:10:41;;;;;;;11.25;3.90;;;;;;;18.17;68.11;100965.63;5093611;28;20024;-65
2022/06/19 10:13:17;;;;;;;14.63;4.55;;;;;;;18.08;67.86;100950.31;5074732;28;20024;-65
2022/06/19 10:15:46;;;;;;;11.63;3.70;;;;;;;18.15;67.11;100945.25;5092749;28;20030;-65
2022/06/19 10:18:17;;;;;;;12.07;3.65;;;;;;;18.33;66.40;100946.19;5074710;28;20077;-64
2022/06/19 10:21:10;;;;;;;8.43;2.85;;;;;;;18.58;62.64;100957.34;5093027;28;20024;-65
2022/06/19 10:24:01;;;;;;;13.05;3.17;;;;;;;18.71;62.08;100952.50;5091352;28;20085;-65
2022/06/19 10:26:41;;;;;;;10.15;3.58;;;;;;;18.79;62.28;100932.91;5093123;28;20387;-65
2022/06/19 10:29:17;;;;;;;10.55;3.10;;;;;;;18.89;61.79;100939.13;5072878;28;20032;-65
2022/06/19 10:32:08;;;;;;;5.60;2.50;;;;;;;18.95;60.92;100957.38;5088268;28;20059;-64
2022/06/19 10:34:55;;;;;;;7.68;2.75;;;;;;;19.04;59.75;100978.06;5084470;28;20110;-65
2022/06/19 10:37:43;;;;;;;9.30;3.30;;;;;;;19.06;59.88;100980.63;5072447;28;20153;-65
2022/06/19 10:40:31;;;;;;;9.60;2.80;;;;;;;19.13;59.84;100968.22;5092406;28;20059;-65
2022/06/19 10:43:35;;;;;;;9.98;2.88;;;;;;;19.26;59.44;100946.28;5089843;28;20502;-65
2022/06/19 10:46:06;;;;;;;9.02;2.95;;;;;;;19.52;58.32;100946.41;5008213;28;20073;-65
2022/06/19 10:48:34;;;;;;;8.18;2.40;;;;;;;19.60;53.22;100957.28;5008580;28;20613;-65
2022/06/19 10:51:31;;;;;;;6.80;2.10;;;;;;;19.82;53.96;100964.13;5030912;28;20040;-65
2022/06/19 10:54:21;;;;;;;6.60;2.20;;;;;;;19.86;51.68;100992.50;5081324;28;20032;-66
2022/06/19 10:56:54;;;;;;;6.25;2.60;;;;;;;19.67;51.21;101004.28;5089440;28;20104;-65
2022/06/19 10:59:21;;;;;;;8.02;2.20;;;;;;;19.64;53.35;101015.34;5089541;28;20085;-66
2022/06/19 11:05:07;;;;;;;11.32;2.63;;;;;;;19.86;52.87;101013.28;5090459;28;20047;-66
2022/06/19 11:07:33;;;;;;;6.13;2.05;;;;;;;20.00;52.35;101006.47;5072415;28;20035;-65
2022/06/19 11:10:17;;;;;;;7.57;2.25;;;;;;;20.22;53.43;101008.69;5091430;28;20024;-65
2022/06/19 11:12:56;;;;;;;7.25;3.08;;;;;;;20.43;51.22;101009.22;5072989;28;20395;-65
2022/06/19 11:15:27;;;;;;;7.70;2.70;;;;;;;20.60;50.59;101012.06;5072508;28;20130;-65
2022/06/19 11:18:13;;;;;;;7.68;2.42;;;;;;;20.80;52.21;101031.66;5071187;28;20031;-65
2022/06/19 11:20:42;;;;;;;8.45;2.33;;;;;;;20.57;50.32;101042.13;5091590;28;20106;-65
2022/06/19 11:23:23;;;;;;;5.60;2.28;;;;;;;20.58;51.90;101054.63;5087653;28;20043;-65
2022/06/19 11:25:58;;;;;;;5.13;2.13;;;;;;;20.63;51.47;101044.19;5088229;28;20035;-65
2022/06/19 11:28:40;;;;;;;7.30;2.28;;;;;;;20.76;50.81;101041.91;5091217;28;20134;-65
2022/06/19 11:31:33;;;;;;;7.57;2.70;;;;;;;20.92;51.02;101054.72;5088284;28;20445;-66
2022/06/19 11:34:43;;;;;;;8.50;2.38;;;;;;;20.93;51.67;101061.81;5087556;28;20097;-66
2022/06/19 11:37:10;;;;;;;4.57;2.30;;;;;;;20.98;52.83;101061.34;5089220;28;20422;-66
2022/06/19 11:39:41;;;;;;;6.50;2.70;;;;;;;20.99;51.75;101061.16;5089404;28;20036;-66
2022/06/19 11:42:33;;;;;;;6.97;2.45;;;;;;;21.24;51.59;101043.22;5089281;28;20029;-66
2022/06/19 11:45:14;;;;;;;9.80;2.75;;;;;;;21.37;51.01;101050.06;5071503;28;20024;-65
2022/06/19 11:47:57;;;;;;;6.55;2.33;;;;;;;21.51;51.85;101053.00;5089531;28;20028;-66